createdAt,value
2023-03-24T00:00:35.877Z,100.00
2023-03-24T00:03:04.000Z,100.00
2023-03-24T00:05:32.198Z,100.00
2023-03-24T00:08:02.619Z,100.00
2023-03-24T00:10:34.946Z,100.00
2023-03-24T00:13:03.569Z,100.00
2023-03-24T00:15:31.712Z,100.00
2023-03-24T00:17:59.932Z,100.00
2023-03-24T00:20:29.469Z,100.00
2023-03-24T00:22:59.103Z,100.00
2023-03-24T00:25:33.974Z,100.00
2023-03-24T00:28:03.068Z,100.00
2023-03-24T00:30:31.668Z,100.00
2023-03-24T00:33:01.956Z,100.00
2023-03-24T00:35:30.673Z,100.00
2023-03-24T00:37:58.835Z,100.00
2023-03-24T00:40:28.790Z,100.00
2023-03-24T00:42:56.922Z,100.00
2023-03-24T00:45:25.005Z,100.00
2023-03-24T00:47:54.901Z,100.00
2023-03-24T00:50:27.172Z,100.00
2023-03-24T00:52:58.411Z,100.00
2023-03-24T00:55:28.748Z,100.00
2023-03-24T00:57:57.373Z,100.00
2023-03-24T01:00:27.553Z,100.00
2023-03-24T01:02:57.395Z,100.00
2023-03-24T01:05:28.101Z,100.00
2023-03-24T01:07:58.152Z,100.00
2023-03-24T01:10:28.174Z,100.00
2023-03-24T01:12:58.197Z,100.00
2023-03-24T01:15:29.521Z,100.00
2023-03-24T01:17:58.450Z,100.00
2023-03-24T01:20:26.769Z,100.00
2023-03-24T01:22:54.904Z,100.00
2023-03-24T01:25:25.721Z,100.00
2023-03-24T01:27:55.259Z,100.00
2023-03-24T01:30:25.761Z,100.00
2023-03-24T01:32:54.680Z,100.00
2023-03-24T01:35:28.475Z,100.00
2023-03-24T01:37:57.706Z,100.00
2023-03-24T01:40:28.691Z,100.00
2023-03-24T01:42:59.402Z,100.00
2023-03-24T01:45:52.755Z,100.00
2023-03-24T01:48:25.265Z,100.00
2023-03-24T01:50:57.544Z,100.00
2023-03-24T01:53:26.775Z,100.00
2023-03-24T01:55:56.182Z,100.00
2023-03-24T01:58:33.185Z,100.00
2023-03-24T02:01:13.771Z,100.00
2023-03-24T02:04:12.204Z,100.00
2023-03-24T02:06:44.151Z,100.00
2023-03-24T02:09:15.082Z,100.00
2023-03-24T02:11:44.244Z,100.00
2023-03-24T02:14:14.624Z,100.00
2023-03-24T02:16:55.489Z,100.00
2023-03-24T02:19:59.196Z,100.00
2023-03-24T02:22:54.186Z,100.00
2023-03-24T02:26:05.416Z,100.00
2023-03-24T02:28:45.282Z,100.00
2023-03-24T02:31:42.504Z,100.00
2023-03-24T02:34:46.435Z,100.00
2023-03-24T02:37:46.853Z,100.00
2023-03-24T02:40:28.087Z,100.00
2023-03-24T02:43:14.337Z,100.00
2023-03-24T02:45:51.729Z,100.00
2023-03-24T02:48:29.973Z,100.00
2023-03-24T02:51:09.628Z,100.00
2023-03-24T02:53:47.757Z,100.00
2023-03-24T02:56:32.730Z,100.00
2023-03-24T02:59:16.801Z,100.00
2023-03-24T03:01:54.348Z,100.00
2023-03-24T03:04:39.890Z,100.00
2023-03-24T03:07:12.901Z,100.00
2023-03-24T03:09:45.168Z,100.00
2023-03-24T03:12:16.289Z,100.00
2023-03-24T03:14:50.362Z,100.00
2023-03-24T03:17:23.778Z,100.00
2023-03-24T03:19:58.192Z,100.00
2023-03-24T03:22:34.080Z,100.00
2023-03-24T03:25:04.641Z,100.00
2023-03-24T03:27:39.315Z,100.00
2023-03-24T03:30:14.731Z,100.00
2023-03-24T03:32:46.222Z,100.00
2023-03-24T03:35:19.279Z,100.00
2023-03-24T03:37:54.261Z,100.00
2023-03-24T03:40:25.824Z,100.00
2023-03-24T03:43:01.878Z,100.00
2023-03-24T03:45:30.193Z,100.00
2023-03-24T03:47:58.509Z,100.00
2023-03-24T03:50:26.799Z,100.00
2023-03-24T03:52:55.856Z,100.00
2023-03-24T03:55:24.015Z,100.00
2023-03-24T03:57:52.279Z,100.00
2023-03-24T04:00:27.453Z,100.00
2023-03-24T04:03:28.521Z,100.00
2023-03-24T04:06:04.226Z,100.00
2023-03-24T04:08:44.627Z,100.00
2023-03-24T04:11:27.530Z,100.00
2023-03-24T04:14:39.067Z,100.00
2023-03-24T04:17:42.823Z,100.00
2023-03-24T04:20:20.076Z,100.00
2023-03-24T04:23:04.428Z,100.00
2023-03-24T04:25:41.025Z,100.00
2023-03-24T04:28:19.865Z,100.00
2023-03-24T04:30:52.404Z,100.00
2023-03-24T04:33:30.395Z,100.00
2023-03-24T04:36:06.904Z,100.00
2023-03-24T04:38:42.781Z,100.00
2023-03-24T04:41:18.086Z,100.00
2023-03-24T04:43:55.443Z,100.00
2023-03-24T04:46:24.809Z,100.00
2023-03-24T04:48:58.489Z,100.00
2023-03-24T04:51:35.592Z,100.00
2023-03-24T04:54:12.313Z,100.00
2023-03-24T04:56:48.540Z,100.00
2023-03-24T04:59:23.880Z,100.00
2023-03-24T05:01:52.546Z,100.00
2023-03-24T05:04:37.151Z,100.00
2023-03-24T05:07:24.093Z,100.00
2023-03-24T05:09:57.502Z,100.00
2023-03-24T05:12:25.736Z,100.00
2023-03-24T05:15:13.286Z,100.00
2023-03-24T05:17:42.996Z,100.00
2023-03-24T05:20:15.241Z,100.00
2023-03-24T05:22:47.183Z,100.00
2023-03-24T05:25:16.044Z,100.00
2023-03-24T05:27:44.405Z,100.00
2023-03-24T05:30:24.942Z,100.00
2023-03-24T05:32:59.480Z,100.00
2023-03-24T05:35:29.074Z,100.00
2023-03-24T05:37:57.513Z,100.00
2023-03-24T05:40:25.644Z,100.00
2023-03-24T05:43:12.385Z,100.00
2023-03-24T05:45:45.450Z,100.00
2023-03-24T05:48:23.540Z,100.00
2023-03-24T05:51:14.978Z,100.00
2023-03-24T05:53:43.444Z,100.00
2023-03-24T05:56:19.960Z,100.00
2023-03-24T05:59:06.846Z,100.00
2023-03-24T06:01:56.986Z,100.00
2023-03-24T06:04:49.424Z,100.00
2023-03-24T06:07:22.262Z,100.00
2023-03-24T06:09:52.685Z,100.00
2023-03-24T06:12:22.946Z,100.00
2023-03-24T06:14:58.327Z,100.00
2023-03-24T06:17:28.717Z,100.00
2023-03-24T06:20:04.403Z,100.00
2023-03-24T06:22:52.325Z,100.00
2023-03-24T06:25:28.867Z,100.00
2023-03-24T06:28:12.356Z,100.00
2023-03-24T06:30:45.095Z,100.00
2023-03-24T06:33:15.248Z,100.00
2023-03-24T06:35:45.238Z,100.00
2023-03-24T06:38:18.236Z,100.00
2023-03-24T06:40:47.077Z,100.00
2023-03-24T06:43:15.959Z,100.00
2023-03-24T06:45:46.332Z,100.00
2023-03-24T06:48:20.031Z,100.00
2023-03-24T06:50:49.099Z,100.00
2023-03-24T06:53:21.828Z,100.00
2023-03-24T06:55:50.845Z,99.96
2023-03-24T06:58:21.547Z,98.46
2023-03-24T07:01:06.049Z,98.49
2023-03-24T07:03:37.046Z,98.91
2023-03-24T07:06:40.253Z,97.08
2023-03-24T07:09:17.779Z,98.52
2023-03-24T07:11:46.565Z,97.66
2023-03-24T07:14:15.768Z,95.98
2023-03-24T07:16:44.502Z,95.92
2023-03-24T07:19:33.687Z,94.05
2023-03-24T07:22:21.263Z,90.13
2023-03-24T07:25:09.984Z,86.04
2023-03-24T07:28:00.977Z,86.35
2023-03-24T07:30:39.878Z,84.68
2023-03-24T07:33:12.377Z,83.08
2023-03-24T07:35:42.835Z,82.05
2023-03-24T07:38:11.363Z,78.63
2023-03-24T07:40:41.087Z,79.03
2023-03-24T07:43:09.289Z,79.02
2023-03-24T07:46:03.823Z,80.69
2023-03-24T07:48:34.392Z,81.91
2023-03-24T07:51:02.548Z,81.08
2023-03-24T07:53:49.199Z,81.72
2023-03-24T07:56:28.228Z,80.18
2023-03-24T07:58:59.111Z,80.91
2023-03-24T08:01:43.023Z,78.86
2023-03-24T08:04:14.727Z,75.61
2023-03-24T08:06:59.883Z,74.75
2023-03-24T08:09:27.965Z,75.95
2023-03-24T08:11:58.991Z,73.86
2023-03-24T08:14:30.746Z,71.01
2023-03-24T08:16:59.046Z,67.44
2023-03-24T08:19:27.597Z,66.70
2023-03-24T08:21:56.050Z,66.52
2023-03-24T08:24:24.184Z,63.43
2023-03-24T08:26:52.770Z,63.46
2023-03-24T08:29:22.289Z,60.36
2023-03-24T08:31:50.391Z,57.50
2023-03-24T08:34:19.262Z,57.33
2023-03-24T08:36:47.471Z,60.62
2023-03-24T08:39:15.522Z,60.26
2023-03-24T08:41:43.660Z,60.29
2023-03-24T08:44:11.819Z,58.42
2023-03-24T08:46:41.566Z,59.12
2023-03-24T08:49:10.265Z,56.57
2023-03-24T08:51:38.341Z,55.65
2023-03-24T08:54:06.578Z,55.47
2023-03-24T08:56:34.700Z,56.43
2023-03-24T08:59:04.645Z,55.30
2023-03-24T09:01:34.118Z,52.65
2023-03-24T09:04:04.067Z,49.73
2023-03-24T09:06:33.025Z,48.41
2023-03-24T09:09:01.154Z,47.02
2023-03-24T09:11:29.307Z,45.10
2023-03-24T09:13:57.539Z,43.32
2023-03-24T09:16:25.784Z,41.89
2023-03-24T09:18:53.968Z,39.88
2023-03-24T09:21:23.432Z,39.33
2023-03-24T09:23:51.493Z,39.23
2023-03-24T09:26:19.669Z,39.08
2023-03-24T09:28:47.793Z,41.34
2023-03-24T09:31:16.108Z,40.13
2023-03-24T09:33:44.169Z,40.65
2023-03-24T09:36:12.898Z,40.25
2023-03-24T09:38:42.426Z,40.10
2023-03-24T09:41:18.003Z,40.63
2023-03-24T09:43:51.155Z,39.93
2023-03-24T09:46:27.836Z,42.06
2023-03-24T09:48:57.783Z,42.91
2023-03-24T09:51:27.651Z,44.03
2023-03-24T09:54:10.108Z,45.65
2023-03-24T09:56:40.871Z,45.72
2023-03-24T09:59:14.844Z,45.09
2023-03-24T10:01:43.106Z,43.14
2023-03-24T10:04:16.623Z,42.23
2023-03-24T10:06:44.876Z,40.94
2023-03-24T10:09:25.441Z,37.77
2023-03-24T10:12:07.354Z,37.67
2023-03-24T10:14:48.074Z,37.58
2023-03-24T10:17:26.912Z,38.84
2023-03-24T10:20:01.075Z,39.10
2023-03-24T10:22:37.753Z,38.49
2023-03-24T10:25:16.130Z,39.50
2023-03-24T10:27:50.102Z,38.41
2023-03-24T10:30:20.845Z,37.43
2023-03-24T10:32:49.251Z,35.41
2023-03-24T10:35:21.022Z,35.13
2023-03-24T10:37:50.014Z,35.52
2023-03-24T10:40:22.677Z,33.29
2023-03-24T10:43:07.193Z,33.90
2023-03-24T10:45:40.728Z,33.36
2023-03-24T10:48:09.588Z,31.55
2023-03-24T10:50:44.174Z,30.33
2023-03-24T10:53:19.804Z,30.75
2023-03-24T10:55:50.929Z,30.84
2023-03-24T10:58:29.301Z,31.39
2023-03-24T11:01:00.126Z,32.30
2023-03-24T11:03:32.312Z,31.26
2023-03-24T11:06:02.123Z,32.61
2023-03-24T11:08:35.742Z,32.02
2023-03-24T11:11:15.154Z,31.42
2023-03-24T11:13:44.002Z,32.43
2023-03-24T11:16:14.872Z,33.63
2023-03-24T11:18:57.887Z,36.47
2023-03-24T11:21:27.600Z,35.39
2023-03-24T11:23:59.150Z,35.86
2023-03-24T11:26:33.831Z,37.09
2023-03-24T11:29:04.796Z,36.41
2023-03-24T11:31:38.369Z,36.62
2023-03-24T11:34:10.706Z,36.82
2023-03-24T11:36:47.378Z,37.53
2023-03-24T11:39:19.528Z,38.15
2023-03-24T11:42:01.784Z,38.27
2023-03-24T11:44:33.812Z,37.66
2023-03-24T11:47:05.756Z,38.62
2023-03-24T11:49:40.558Z,37.81
2023-03-24T11:52:21.747Z,37.78
2023-03-24T11:54:49.893Z,38.59
2023-03-24T11:57:32.646Z,39.64
2023-03-24T12:00:10.975Z,39.12
2023-03-24T12:02:57.786Z,40.73
2023-03-24T12:05:34.446Z,39.46
2023-03-24T12:08:24.853Z,40.18
2023-03-24T12:11:07.955Z,42.20
2023-03-24T12:13:41.089Z,40.20
2023-03-24T12:16:31.125Z,40.18
2023-03-24T12:19:25.704Z,40.23
2023-03-24T12:22:05.833Z,40.39
2023-03-24T12:24:49.212Z,41.16
2023-03-24T12:27:28.544Z,41.90
2023-03-24T12:30:05.607Z,42.42
2023-03-24T12:32:43.221Z,43.12
2023-03-24T12:35:38.281Z,43.31
2023-03-24T12:38:35.940Z,42.82
2023-03-24T12:41:52.670Z,43.15
2023-03-24T12:45:08.485Z,43.29
2023-03-24T12:47:59.439Z,44.38
2023-03-24T12:50:44.549Z,45.40
2023-03-24T12:53:36.998Z,45.97
2023-03-24T12:56:11.280Z,47.04
2023-03-24T12:58:44.688Z,45.96
2023-03-24T13:01:20.620Z,45.50
2023-03-24T13:03:55.508Z,47.16
2023-03-24T13:06:29.332Z,46.70
2023-03-24T13:09:08.175Z,46.03
2023-03-24T13:11:44.947Z,45.21
2023-03-24T13:14:19.289Z,46.16
2023-03-24T13:16:49.343Z,45.61
2023-03-24T13:19:24.615Z,45.65
2023-03-24T13:21:55.006Z,47.20
2023-03-24T13:24:23.848Z,47.14
2023-03-24T13:27:01.816Z,47.59
2023-03-24T13:30:08.768Z,47.07
2023-03-24T13:32:40.206Z,46.42
2023-03-24T13:35:19.533Z,45.94
2023-03-24T13:37:52.293Z,46.13
2023-03-24T13:40:24.554Z,45.61
2023-03-24T13:42:56.289Z,45.70
2023-03-24T13:45:39.094Z,45.72
2023-03-24T13:48:19.748Z,43.56
2023-03-24T13:50:57.616Z,42.78
2023-03-24T13:53:34.510Z,42.84
2023-03-24T13:56:04.990Z,42.71
2023-03-24T13:59:07.975Z,40.69
2023-03-24T14:01:39.206Z,39.51
2023-03-24T14:04:28.279Z,39.82
2023-03-24T14:06:59.005Z,39.13
2023-03-24T14:09:29.442Z,39.81
2023-03-24T14:12:20.773Z,39.71
2023-03-24T14:15:15.666Z,40.46
2023-03-24T14:17:49.012Z,40.62
2023-03-24T14:20:36.146Z,40.14
2023-03-24T14:23:06.090Z,40.65
2023-03-24T14:25:36.899Z,40.44
2023-03-24T14:28:22.482Z,41.14
2023-03-24T14:31:03.494Z,40.55
2023-03-24T14:33:32.025Z,40.62
2023-03-24T14:36:06.480Z,40.67
2023-03-24T14:38:39.239Z,40.50
2023-03-24T14:41:13.923Z,42.36
2023-03-24T14:43:59.128Z,40.74
2023-03-24T14:46:40.073Z,41.63
2023-03-24T14:49:18.603Z,41.93
2023-03-24T14:51:53.934Z,41.99
2023-03-24T14:54:29.950Z,41.89
2023-03-24T14:56:59.712Z,42.11
2023-03-24T14:59:44.728Z,41.92
2023-03-24T15:02:29.362Z,41.49
2023-03-24T15:05:24.986Z,41.36
2023-03-24T15:08:05.649Z,41.62
2023-03-24T15:10:40.360Z,42.31
2023-03-24T15:13:30.288Z,42.30
2023-03-24T15:15:59.297Z,41.89
2023-03-24T15:18:27.745Z,41.08
2023-03-24T15:20:55.885Z,40.12
2023-03-24T15:23:25.923Z,39.29
2023-03-24T15:25:56.426Z,39.47
2023-03-24T15:28:27.498Z,39.64
2023-03-24T15:30:57.336Z,39.65
2023-03-24T15:33:26.144Z,40.07
2023-03-24T15:35:57.696Z,41.23
2023-03-24T15:38:30.285Z,41.14
2023-03-24T15:41:04.174Z,41.26
2023-03-24T15:43:32.372Z,41.45
2023-03-24T15:46:11.765Z,40.99
2023-03-24T15:48:40.436Z,41.66
2023-03-24T15:51:11.755Z,42.18
2023-03-24T15:53:44.234Z,42.42
2023-03-24T15:56:26.607Z,42.00
2023-03-24T15:58:57.113Z,42.65
2023-03-24T16:01:36.162Z,42.76
2023-03-24T16:04:07.122Z,43.76
2023-03-24T16:06:36.843Z,43.13
2023-03-24T16:09:08.760Z,43.60
2023-03-24T16:11:38.276Z,43.66
2023-03-24T16:14:24.070Z,43.93
2023-03-24T16:16:55.482Z,44.57
2023-03-24T16:19:24.363Z,47.19
2023-03-24T16:21:52.454Z,47.17
2023-03-24T16:24:20.840Z,47.96
2023-03-24T16:26:50.397Z,47.16
2023-03-24T16:29:20.336Z,46.56
2023-03-24T16:31:51.494Z,45.93
2023-03-24T16:34:20.972Z,47.87
2023-03-24T16:36:50.630Z,48.93
2023-03-24T16:39:20.327Z,50.34
2023-03-24T16:41:48.501Z,50.99
2023-03-24T16:44:18.337Z,50.32
2023-03-24T16:46:47.505Z,47.46
2023-03-24T16:49:17.837Z,47.47
2023-03-24T16:51:47.083Z,48.14
2023-03-24T16:54:15.644Z,47.63
2023-03-24T16:56:43.991Z,48.76
2023-03-24T16:59:12.601Z,48.60
2023-03-24T17:01:45.378Z,49.89
2023-03-24T17:04:16.560Z,50.55
2023-03-24T17:06:47.185Z,50.54
2023-03-24T17:09:15.835Z,50.82
2023-03-24T17:11:46.627Z,51.08
2023-03-24T17:14:15.584Z,50.91
2023-03-24T17:16:46.671Z,51.53
2023-03-24T17:19:16.744Z,52.05
2023-03-24T17:21:50.529Z,53.26
2023-03-24T17:24:20.983Z,53.07
2023-03-24T17:26:50.234Z,52.66
2023-03-24T17:29:19.336Z,51.13
2023-03-24T17:31:49.446Z,52.82
2023-03-24T17:34:21.608Z,52.87
2023-03-24T17:36:51.864Z,52.85
2023-03-24T17:39:22.663Z,53.85
2023-03-24T17:41:51.831Z,53.49
2023-03-24T17:44:21.608Z,54.09
2023-03-24T17:46:52.704Z,54.29
2023-03-24T17:49:22.091Z,54.65
2023-03-24T17:51:51.486Z,56.16
2023-03-24T17:54:20.989Z,56.64
2023-03-24T17:56:52.010Z,57.90
2023-03-24T17:59:22.252Z,59.38
2023-03-24T18:01:54.864Z,59.65
2023-03-24T18:04:24.337Z,60.08
2023-03-24T18:06:52.894Z,60.20
2023-03-24T18:09:21.982Z,61.53
2023-03-24T18:11:50.614Z,61.40
2023-03-24T18:14:20.070Z,62.50
2023-03-24T18:16:49.598Z,63.43
2023-03-24T18:19:20.545Z,64.20
2023-03-24T18:21:50.204Z,65.30
2023-03-24T18:24:20.248Z,66.00
2023-03-24T18:26:50.550Z,66.95
2023-03-24T18:29:22.141Z,68.65
2023-03-24T18:31:52.014Z,69.33
2023-03-24T18:34:23.258Z,69.84
2023-03-24T18:36:53.369Z,70.24
2023-03-24T18:39:23.110Z,70.63
2023-03-24T18:41:53.643Z,70.86
2023-03-24T18:44:24.185Z,71.51
2023-03-24T18:46:54.852Z,71.83
2023-03-24T18:49:26.105Z,72.52
2023-03-24T18:51:55.416Z,72.80
2023-03-24T18:54:25.647Z,72.90
2023-03-24T18:56:56.437Z,73.87
2023-03-24T18:59:28.481Z,74.54
2023-03-24T19:01:58.663Z,74.88
2023-03-24T19:04:29.500Z,74.66
2023-03-24T19:07:03.266Z,75.10
2023-03-24T19:09:33.107Z,75.80
2023-03-24T19:12:02.325Z,75.60
2023-03-24T19:14:32.326Z,75.67
2023-03-24T19:17:02.999Z,76.05
2023-03-24T19:19:33.848Z,76.11
2023-03-24T19:22:04.152Z,76.24
2023-03-24T19:24:37.727Z,76.48
2023-03-24T19:27:09.000Z,77.52
2023-03-24T19:29:38.246Z,78.14
2023-03-24T19:32:08.575Z,78.60
2023-03-24T19:34:41.589Z,78.68
2023-03-24T19:37:11.994Z,79.09
2023-03-24T19:39:45.791Z,79.38
2023-03-24T19:42:16.806Z,81.00
2023-03-24T19:44:47.632Z,82.38
2023-03-24T19:47:17.682Z,83.43
2023-03-24T19:49:50.100Z,84.55
2023-03-24T19:52:19.119Z,84.22
2023-03-24T19:54:53.113Z,83.66
2023-03-24T19:57:23.791Z,84.94
2023-03-24T19:59:53.448Z,84.75
2023-03-24T20:02:23.193Z,84.49
2023-03-24T20:04:56.655Z,84.73
2023-03-24T20:07:27.694Z,84.77
2023-03-24T20:10:02.210Z,85.28
2023-03-24T20:12:32.423Z,87.47
2023-03-24T20:15:05.978Z,87.26
2023-03-24T20:17:37.972Z,88.30
2023-03-24T20:20:12.321Z,88.59
2023-03-24T20:22:46.484Z,88.67
2023-03-24T20:25:18.722Z,90.03
2023-03-24T20:27:48.988Z,90.30
2023-03-24T20:30:21.004Z,91.70
2023-03-24T20:32:54.167Z,91.66
2023-03-24T20:35:28.761Z,92.11
2023-03-24T20:37:57.979Z,91.65
2023-03-24T20:40:30.770Z,92.06
2023-03-24T20:43:01.637Z,92.29
2023-03-24T20:45:31.537Z,92.68
2023-03-24T20:48:01.655Z,93.51
2023-03-24T20:50:32.971Z,93.71
2023-03-24T20:53:02.869Z,93.56
2023-03-24T20:55:33.155Z,92.83
2023-03-24T20:58:04.145Z,93.82
2023-03-24T21:00:35.257Z,95.19
2023-03-24T21:03:05.052Z,96.50
2023-03-24T21:05:36.902Z,96.39
2023-03-24T21:08:07.500Z,96.62
2023-03-24T21:10:38.772Z,97.19
2023-03-24T21:13:08.811Z,98.13
2023-03-24T21:15:44.350Z,97.93
2023-03-24T21:18:17.736Z,98.60
2023-03-24T21:20:55.562Z,99.36
2023-03-24T21:23:28.584Z,99.58
2023-03-24T21:25:57.876Z,97.89
2023-03-24T21:28:30.869Z,96.65
2023-03-24T21:31:05.353Z,96.81
2023-03-24T21:33:35.120Z,96.45
2023-03-24T21:36:05.895Z,96.74
2023-03-24T21:38:35.325Z,96.48
2023-03-24T21:41:03.639Z,96.88
2023-03-24T21:43:32.167Z,98.89
2023-03-24T21:46:00.843Z,100.00
2023-03-24T21:48:29.471Z,100.00
2023-03-24T21:50:58.809Z,100.00
2023-03-24T21:53:28.561Z,100.00
2023-03-24T21:56:04.476Z,100.00
2023-03-24T21:58:33.594Z,100.00
2023-03-24T22:01:02.302Z,100.00
2023-03-24T22:03:30.707Z,100.00
2023-03-24T22:05:58.911Z,100.00
2023-03-24T22:08:30.735Z,100.00
2023-03-24T22:11:00.013Z,100.00
2023-03-24T22:13:29.438Z,100.00
2023-03-24T22:15:59.360Z,100.00
2023-03-24T22:18:29.710Z,100.00
2023-03-24T22:21:01.019Z,100.00
2023-03-24T22:23:33.262Z,100.00
2023-03-24T22:26:04.034Z,100.00
2023-03-24T22:28:34.575Z,100.00
2023-03-24T22:31:03.473Z,100.00
2023-03-24T22:33:31.706Z,100.00
2023-03-24T22:36:01.525Z,100.00
2023-03-24T22:38:31.664Z,100.00
2023-03-24T22:41:00.647Z,100.00
2023-03-24T22:43:29.725Z,100.00
2023-03-24T22:45:58.266Z,100.00
2023-03-24T22:48:26.676Z,100.00
2023-03-24T22:50:55.086Z,100.00
2023-03-24T22:53:23.253Z,100.00
2023-03-24T22:55:53.198Z,100.00
2023-03-24T22:58:21.691Z,100.00
2023-03-24T23:00:51.493Z,100.00
2023-03-24T23:03:19.598Z,100.00
2023-03-24T23:05:48.170Z,100.00
2023-03-24T23:08:17.094Z,100.00
2023-03-24T23:10:46.355Z,100.00
2023-03-24T23:13:17.022Z,100.00
2023-03-24T23:15:45.389Z,100.00
2023-03-24T23:18:13.564Z,100.00
2023-03-24T23:20:42.882Z,100.00
2023-03-24T23:23:11.926Z,100.00
2023-03-24T23:25:43.167Z,100.00
2023-03-24T23:28:11.640Z,100.00
2023-03-24T23:30:42.208Z,100.00
2023-03-24T23:33:15.090Z,100.00
2023-03-24T23:35:43.463Z,100.00
2023-03-24T23:38:11.601Z,100.00
2023-03-24T23:40:39.961Z,100.00
2023-03-24T23:43:08.094Z,100.00
2023-03-24T23:45:36.418Z,100.00
2023-03-24T23:48:07.356Z,100.00
2023-03-24T23:50:35.600Z,100.00
2023-03-24T23:53:03.826Z,100.00
2023-03-24T23:55:31.952Z,100.00
2023-03-24T23:58:00.104Z,100.00
